sensor_id;sensor_type;location;lat;lon;timestamp;temperature;humidity
76203;DHT22;64985;46.364;17.008;2023-04-15T00:02:18;6.10;99.90
76203;DHT22;64985;46.364;17.008;2023-04-15T00:05:22;6.10;99.90
76203;DHT22;64985;46.364;17.008;2023-04-15T00:08:25;6.00;99.90
76203;DHT22;64985;46.364;17.008;2023-04-15T00:11:28;6.00;99.90
76203;DHT22;64985;46.364;17.008;2023-04-15T00:14:33;6.00;99.90
76203;DHT22;64985;46.364;17.008;2023-04-15T00:17:37;6.00;99.90
76203;DHT22;64985;46.364;17.008;2023-04-15T00:20:41;6.00;99.90
76203;DHT22;64985;46.364;17.008;2023-04-15T00:23:45;6.00;99.90
76203;DHT22;64985;46.364;17.008;2023-04-15T00:26:51;6.00;99.90
76203;DHT22;64985;46.364;17.008;2023-04-15T00:29:54;6.00;99.90
76203;DHT22;64985;46.364;17.008;2023-04-15T00:32:57;6.00;99.90
76203;DHT22;64985;46.364;17.008;2023-04-15T00:36:01;6.00;99.90
76203;DHT22;64985;46.364;17.008;2023-04-15T00:39:05;6.00;99.90
76203;DHT22;64985;46.364;17.008;2023-04-15T00:42:09;6.00;99.90
76203;DHT22;64985;46.364;17.008;2023-04-15T00:45:12;6.00;99.90
76203;DHT22;64985;46.364;17.008;2023-04-15T00:48:15;6.00;99.90
76203;DHT22;64985;46.364;17.008;2023-04-15T00:51:19;6.10;99.90
76203;DHT22;64985;46.364;17.008;2023-04-15T00:54:22;6.00;99.90
76203;DHT22;64985;46.364;17.008;2023-04-15T00:57:25;6.10;99.90
76203;DHT22;64985;46.364;17.008;2023-04-15T01:00:30;6.10;99.90
76203;DHT22;64985;46.364;17.008;2023-04-15T01:03:33;6.10;99.90
76203;DHT22;64985;46.364;17.008;2023-04-15T01:06:36;6.20;99.90
76203;DHT22;64985;46.364;17.008;2023-04-15T01:09:40;6.20;99.90
76203;DHT22;64985;46.364;17.008;2023-04-15T01:12:43;6.20;99.90
76203;DHT22;64985;46.364;17.008;2023-04-15T01:15:46;6.20;99.90
76203;DHT22;64985;46.364;17.008;2023-04-15T01:18:50;6.20;99.90
76203;DHT22;64985;46.364;17.008;2023-04-15T01:21:54;6.30;99.90
76203;DHT22;64985;46.364;17.008;2023-04-15T01:25:10;6.30;99.90
76203;DHT22;64985;46.364;17.008;2023-04-15T01:28:13;6.30;99.90
76203;DHT22;64985;46.364;17.008;2023-04-15T01:31:16;6.30;99.90
76203;DHT22;64985;46.364;17.008;2023-04-15T01:34:20;6.30;99.90
76203;DHT22;64985;46.364;17.008;2023-04-15T01:37:24;6.40;99.90
76203;DHT22;64985;46.364;17.008;2023-04-15T01:40:27;6.40;99.90
76203;DHT22;64985;46.364;17.008;2023-04-15T01:43:30;6.40;99.90
76203;DHT22;64985;46.364;17.008;2023-04-15T01:46:34;6.40;99.90
76203;DHT22;64985;46.364;17.008;2023-04-15T01:49:38;6.40;99.90
76203;DHT22;64985;46.364;17.008;2023-04-15T01:52:41;6.40;99.90
76203;DHT22;64985;46.364;17.008;2023-04-15T01:55:44;6.40;99.90
76203;DHT22;64985;46.364;17.008;2023-04-15T01:58:47;6.40;99.90
76203;DHT22;64985;46.364;17.008;2023-04-15T02:01:50;6.40;99.90
76203;DHT22;64985;46.364;17.008;2023-04-15T02:04:54;6.40;99.90
76203;DHT22;64985;46.364;17.008;2023-04-15T02:07:57;6.40;99.90
76203;DHT22;64985;46.364;17.008;2023-04-15T02:11:00;6.40;99.90
76203;DHT22;64985;46.364;17.008;2023-04-15T02:14:03;6.40;99.90
76203;DHT22;64985;46.364;17.008;2023-04-15T02:17:08;6.40;99.90
76203;DHT22;64985;46.364;17.008;2023-04-15T02:20:11;6.40;99.90
76203;DHT22;64985;46.364;17.008;2023-04-15T02:23:15;6.40;99.90
76203;DHT22;64985;46.364;17.008;2023-04-15T02:26:18;6.40;99.90
76203;DHT22;64985;46.364;17.008;2023-04-15T02:29:22;6.50;99.90
76203;DHT22;64985;46.364;17.008;2023-04-15T02:32:25;6.50;99.90
76203;DHT22;64985;46.364;17.008;2023-04-15T02:35:28;6.50;99.90
76203;DHT22;64985;46.364;17.008;2023-04-15T02:38:31;6.50;99.90
76203;DHT22;64985;46.364;17.008;2023-04-15T02:41:35;6.50;99.90
76203;DHT22;64985;46.364;17.008;2023-04-15T02:44:38;6.40;99.90
76203;DHT22;64985;46.364;17.008;2023-04-15T02:47:41;6.40;99.90
76203;DHT22;64985;46.364;17.008;2023-04-15T02:50:46;6.50;99.90
76203;DHT22;64985;46.364;17.008;2023-04-15T02:53:49;6.50;99.90
76203;DHT22;64985;46.364;17.008;2023-04-15T02:56:52;6.50;99.90
76203;DHT22;64985;46.364;17.008;2023-04-15T02:59:58;6.50;99.90
76203;DHT22;64985;46.364;17.008;2023-04-15T03:03:04;6.50;99.90
76203;DHT22;64985;46.364;17.008;2023-04-15T03:06:08;6.60;99.90
76203;DHT22;64985;46.364;17.008;2023-04-15T03:09:11;6.60;99.90
76203;DHT22;64985;46.364;17.008;2023-04-15T03:12:14;6.60;99.90
76203;DHT22;64985;46.364;17.008;2023-04-15T03:15:17;6.60;99.90
76203;DHT22;64985;46.364;17.008;2023-04-15T03:18:20;6.60;99.90
76203;DHT22;64985;46.364;17.008;2023-04-15T03:21:24;6.60;99.90
76203;DHT22;64985;46.364;17.008;2023-04-15T03:24:27;6.60;99.90
76203;DHT22;64985;46.364;17.008;2023-04-15T03:27:31;6.60;99.90
76203;DHT22;64985;46.364;17.008;2023-04-15T03:30:35;6.60;99.90
76203;DHT22;64985;46.364;17.008;2023-04-15T03:33:38;6.60;99.90
76203;DHT22;64985;46.364;17.008;2023-04-15T03:36:41;6.60;99.90
76203;DHT22;64985;46.364;17.008;2023-04-15T03:39:44;6.60;99.90
76203;DHT22;64985;46.364;17.008;2023-04-15T03:42:48;6.60;99.90
76203;DHT22;64985;46.364;17.008;2023-04-15T03:45:51;6.60;99.90
76203;DHT22;64985;46.364;17.008;2023-04-15T03:48:54;6.60;99.90
76203;DHT22;64985;46.364;17.008;2023-04-15T03:51:57;6.70;99.90
76203;DHT22;64985;46.364;17.008;2023-04-15T03:55:01;6.70;99.90
76203;DHT22;64985;46.364;17.008;2023-04-15T03:58:04;6.70;99.90
76203;DHT22;64985;46.364;17.008;2023-04-15T04:01:07;6.60;99.90
76203;DHT22;64985;46.364;17.008;2023-04-15T04:04:10;6.70;99.90
76203;DHT22;64985;46.364;17.008;2023-04-15T04:07:16;6.70;99.90
76203;DHT22;64985;46.364;17.008;2023-04-15T04:10:20;6.70;99.90
76203;DHT22;64985;46.364;17.008;2023-04-15T04:13:23;6.60;99.90
76203;DHT22;64985;46.364;17.008;2023-04-15T04:16:25;6.60;99.90
76203;DHT22;64985;46.364;17.008;2023-04-15T04:19:29;6.60;99.90
76203;DHT22;64985;46.364;17.008;2023-04-15T04:22:39;6.60;99.90
76203;DHT22;64985;46.364;17.008;2023-04-15T04:25:42;6.60;99.90
76203;DHT22;64985;46.364;17.008;2023-04-15T04:28:45;6.60;99.90
76203;DHT22;64985;46.364;17.008;2023-04-15T04:31:48;6.60;99.90
76203;DHT22;64985;46.364;17.008;2023-04-15T04:34:52;6.60;99.90
76203;DHT22;64985;46.364;17.008;2023-04-15T04:38:00;6.60;99.90
76203;DHT22;64985;46.364;17.008;2023-04-15T04:41:03;6.60;99.90
76203;DHT22;64985;46.364;17.008;2023-04-15T04:44:06;6.60;99.90
76203;DHT22;64985;46.364;17.008;2023-04-15T04:47:09;6.70;99.90
76203;DHT22;64985;46.364;17.008;2023-04-15T04:50:13;6.70;99.90
76203;DHT22;64985;46.364;17.008;2023-04-15T04:53:16;6.60;99.90
76203;DHT22;64985;46.364;17.008;2023-04-15T04:56:19;6.60;99.90
76203;DHT22;64985;46.364;17.008;2023-04-15T04:59:23;6.70;99.90
76203;DHT22;64985;46.364;17.008;2023-04-15T05:02:27;6.70;99.90
76203;DHT22;64985;46.364;17.008;2023-04-15T05:05:30;6.70;99.90
76203;DHT22;64985;46.364;17.008;2023-04-15T05:08:33;6.70;99.90
76203;DHT22;64985;46.364;17.008;2023-04-15T05:11:36;6.70;99.90
76203;DHT22;64985;46.364;17.008;2023-04-15T05:14:42;6.70;99.90
76203;DHT22;64985;46.364;17.008;2023-04-15T05:17:45;6.80;99.90
76203;DHT22;64985;46.364;17.008;2023-04-15T05:20:48;6.70;99.90
76203;DHT22;64985;46.364;17.008;2023-04-15T05:23:51;6.70;99.90
76203;DHT22;64985;46.364;17.008;2023-04-15T05:26:55;6.80;99.90
76203;DHT22;64985;46.364;17.008;2023-04-15T05:29:58;6.80;99.90
76203;DHT22;64985;46.364;17.008;2023-04-15T05:33:01;6.90;99.90
76203;DHT22;64985;46.364;17.008;2023-04-15T05:36:05;6.80;99.90
76203;DHT22;64985;46.364;17.008;2023-04-15T05:39:08;6.80;99.90
76203;DHT22;64985;46.364;17.008;2023-04-15T05:42:11;6.80;99.90
76203;DHT22;64985;46.364;17.008;2023-04-15T05:45:14;6.90;99.90
76203;DHT22;64985;46.364;17.008;2023-04-15T05:48:17;6.90;99.90
76203;DHT22;64985;46.364;17.008;2023-04-15T05:51:21;6.90;99.90
76203;DHT22;64985;46.364;17.008;2023-04-15T05:54:24;7.00;99.90
76203;DHT22;64985;46.364;17.008;2023-04-15T05:57:29;7.00;99.90
76203;DHT22;64985;46.364;17.008;2023-04-15T06:00:32;7.10;99.90
76203;DHT22;64985;46.364;17.008;2023-04-15T06:03:35;7.10;99.90
76203;DHT22;64985;46.364;17.008;2023-04-15T06:06:38;7.20;99.90
76203;DHT22;64985;46.364;17.008;2023-04-15T06:09:42;7.20;99.90
76203;DHT22;64985;46.364;17.008;2023-04-15T06:12:46;7.20;99.90
76203;DHT22;64985;46.364;17.008;2023-04-15T06:15:49;7.10;99.90
76203;DHT22;64985;46.364;17.008;2023-04-15T06:18:52;7.20;99.90
76203;DHT22;64985;46.364;17.008;2023-04-15T06:21:57;7.10;99.90
76203;DHT22;64985;46.364;17.008;2023-04-15T06:25:00;7.10;99.90
76203;DHT22;64985;46.364;17.008;2023-04-15T06:28:03;7.10;99.90
76203;DHT22;64985;46.364;17.008;2023-04-15T06:31:07;7.20;99.90
76203;DHT22;64985;46.364;17.008;2023-04-15T06:34:10;7.20;99.90
76203;DHT22;64985;46.364;17.008;2023-04-15T06:37:13;7.30;99.90
76203;DHT22;64985;46.364;17.008;2023-04-15T06:40:18;7.30;99.90
76203;DHT22;64985;46.364;17.008;2023-04-15T06:43:21;7.40;99.90
76203;DHT22;64985;46.364;17.008;2023-04-15T06:46:23;7.50;99.90
76203;DHT22;64985;46.364;17.008;2023-04-15T06:49:27;7.50;99.90
76203;DHT22;64985;46.364;17.008;2023-04-15T06:52:30;7.50;99.90
76203;DHT22;64985;46.364;17.008;2023-04-15T06:55:34;7.40;99.90
76203;DHT22;64985;46.364;17.008;2023-04-15T06:58:37;7.40;99.90
76203;DHT22;64985;46.364;17.008;2023-04-15T07:01:41;7.40;99.90
76203;DHT22;64985;46.364;17.008;2023-04-15T07:04:44;7.40;99.90
76203;DHT22;64985;46.364;17.008;2023-04-15T07:07:47;7.40;99.90
76203;DHT22;64985;46.364;17.008;2023-04-15T07:10:50;7.40;99.90
76203;DHT22;64985;46.364;17.008;2023-04-15T07:13:53;7.50;99.90
76203;DHT22;64985;46.364;17.008;2023-04-15T07:16:59;7.50;99.90
76203;DHT22;64985;46.364;17.008;2023-04-15T07:20:03;7.50;99.90
76203;DHT22;64985;46.364;17.008;2023-04-15T07:23:06;7.50;99.90
76203;DHT22;64985;46.364;17.008;2023-04-15T07:26:09;7.50;99.90
76203;DHT22;64985;46.364;17.008;2023-04-15T07:29:13;7.50;99.90
76203;DHT22;64985;46.364;17.008;2023-04-15T07:32:17;7.60;99.90
76203;DHT22;64985;46.364;17.008;2023-04-15T07:35:20;7.70;99.90
76203;DHT22;64985;46.364;17.008;2023-04-15T07:38:24;7.70;99.90
76203;DHT22;64985;46.364;17.008;2023-04-15T07:41:28;7.80;99.90
76203;DHT22;64985;46.364;17.008;2023-04-15T07:44:32;7.90;99.90
76203;DHT22;64985;46.364;17.008;2023-04-15T07:47:35;8.00;99.90
76203;DHT22;64985;46.364;17.008;2023-04-15T07:50:38;8.00;99.90
76203;DHT22;64985;46.364;17.008;2023-04-15T07:53:41;8.10;99.90
76203;DHT22;64985;46.364;17.008;2023-04-15T07:56:46;8.10;99.90
76203;DHT22;64985;46.364;17.008;2023-04-15T07:59:49;8.30;99.90
76203;DHT22;64985;46.364;17.008;2023-04-15T08:02:52;8.30;99.90
76203;DHT22;64985;46.364;17.008;2023-04-15T08:05:56;8.40;99.90
76203;DHT22;64985;46.364;17.008;2023-04-15T08:09:00;8.40;99.90
76203;DHT22;64985;46.364;17.008;2023-04-15T08:12:03;8.40;99.90
76203;DHT22;64985;46.364;17.008;2023-04-15T08:15:08;8.50;99.90
76203;DHT22;64985;46.364;17.008;2023-04-15T08:18:11;8.60;99.90
76203;DHT22;64985;46.364;17.008;2023-04-15T08:21:15;8.60;99.90
76203;DHT22;64985;46.364;17.008;2023-04-15T08:24:18;8.70;99.90
76203;DHT22;64985;46.364;17.008;2023-04-15T08:27:21;8.80;99.90
76203;DHT22;64985;46.364;17.008;2023-04-15T08:30:25;9.00;99.90
76203;DHT22;64985;46.364;17.008;2023-04-15T08:33:28;9.00;99.90
76203;DHT22;64985;46.364;17.008;2023-04-15T08:36:31;9.10;99.90
76203;DHT22;64985;46.364;17.008;2023-04-15T08:39:34;9.10;99.90
76203;DHT22;64985;46.364;17.008;2023-04-15T08:42:42;9.20;99.90
76203;DHT22;64985;46.364;17.008;2023-04-15T08:45:46;9.10;99.90
76203;DHT22;64985;46.364;17.008;2023-04-15T08:48:51;9.10;99.90
76203;DHT22;64985;46.364;17.008;2023-04-15T08:51:58;9.20;99.90
76203;DHT22;64985;46.364;17.008;2023-04-15T08:55:02;9.40;99.90
76203;DHT22;64985;46.364;17.008;2023-04-15T08:58:07;9.40;99.90
76203;DHT22;64985;46.364;17.008;2023-04-15T09:01:13;9.40;99.90
76203;DHT22;64985;46.364;17.008;2023-04-15T09:04:16;9.40;99.90
76203;DHT22;64985;46.364;17.008;2023-04-15T09:07:20;9.50;99.90
76203;DHT22;64985;46.364;17.008;2023-04-15T09:10:23;9.60;99.90
76203;DHT22;64985;46.364;17.008;2023-04-15T09:13:26;9.50;99.90
76203;DHT22;64985;46.364;17.008;2023-04-15T09:16:29;9.60;99.90
76203;DHT22;64985;46.364;17.008;2023-04-15T09:19:32;9.80;99.90
76203;DHT22;64985;46.364;17.008;2023-04-15T09:22:36;9.90;99.90
76203;DHT22;64985;46.364;17.008;2023-04-15T09:25:40;9.80;99.90
76203;DHT22;64985;46.364;17.008;2023-04-15T09:28:46;9.90;99.90
76203;DHT22;64985;46.364;17.008;2023-04-15T09:31:50;10.00;99.90
76203;DHT22;64985;46.364;17.008;2023-04-15T09:34:53;9.70;99.90
76203;DHT22;64985;46.364;17.008;2023-04-15T09:38:04;9.70;99.90
76203;DHT22;64985;46.364;17.008;2023-04-15T09:41:16;9.90;99.90
76203;DHT22;64985;46.364;17.008;2023-04-15T09:44:23;10.00;99.90
76203;DHT22;64985;46.364;17.008;2023-04-15T09:50:40;10.30;99.90
76203;DHT22;64985;46.364;17.008;2023-04-15T09:53:44;10.30;99.90
76203;DHT22;64985;46.364;17.008;2023-04-15T09:56:47;10.70;99.90
76203;DHT22;64985;46.364;17.008;2023-04-15T09:59:53;11.10;99.90
76203;DHT22;64985;46.364;17.008;2023-04-15T10:02:56;11.30;99.90
76203;DHT22;64985;46.364;17.008;2023-04-15T10:06:00;11.50;99.90
76203;DHT22;64985;46.364;17.008;2023-04-15T10:09:05;11.40;99.90
76203;DHT22;64985;46.364;17.008;2023-04-15T10:12:09;11.70;99.90
76203;DHT22;64985;46.364;17.008;2023-04-15T10:15:15;11.90;99.90
76203;DHT22;64985;46.364;17.008;2023-04-15T10:18:20;11.80;99.90
76203;DHT22;64985;46.364;17.008;2023-04-15T10:21:27;12.00;99.90
76203;DHT22;64985;46.364;17.008;2023-04-15T10:24:30;11.90;99.90
76203;DHT22;64985;46.364;17.008;2023-04-15T10:27:34;12.40;99.90
76203;DHT22;64985;46.364;17.008;2023-04-15T10:30:39;13.20;99.90
76203;DHT22;64985;46.364;17.008;2023-04-15T10:33:42;13.50;97.40
76203;DHT22;64985;46.364;17.008;2023-04-15T10:36:46;13.10;99.90
76203;DHT22;64985;46.364;17.008;2023-04-15T10:39:49;13.60;99.90
76203;DHT22;64985;46.364;17.008;2023-04-15T10:42:56;13.80;99.90
76203;DHT22;64985;46.364;17.008;2023-04-15T10:45:59;13.70;99.70
76203;DHT22;64985;46.364;17.008;2023-04-15T10:49:14;13.00;99.90
76203;DHT22;64985;46.364;17.008;2023-04-15T10:52:28;12.40;99.90
76203;DHT22;64985;46.364;17.008;2023-04-15T10:55:32;12.40;99.90
76203;DHT22;64985;46.364;17.008;2023-04-15T10:58:43;12.40;99.90
76203;DHT22;64985;46.364;17.008;2023-04-15T11:01:54;12.50;99.90
76203;DHT22;64985;46.364;17.008;2023-04-15T11:05:02;12.60;99.90
76203;DHT22;64985;46.364;17.008;2023-04-15T11:08:05;12.60;99.90
76203;DHT22;64985;46.364;17.008;2023-04-15T11:11:08;12.60;99.90
76203;DHT22;64985;46.364;17.008;2023-04-15T11:14:15;12.40;99.90
76203;DHT22;64985;46.364;17.008;2023-04-15T11:17:27;12.60;99.90
76203;DHT22;64985;46.364;17.008;2023-04-15T11:20:31;12.80;99.90
76203;DHT22;64985;46.364;17.008;2023-04-15T11:23:42;13.10;99.90
76203;DHT22;64985;46.364;17.008;2023-04-15T11:27:00;13.00;99.90
76203;DHT22;64985;46.364;17.008;2023-04-15T11:30:23;13.10;99.90
76203;DHT22;64985;46.364;17.008;2023-04-15T11:33:27;13.00;99.10
76203;DHT22;64985;46.364;17.008;2023-04-15T11:36:30;12.80;95.90
76203;DHT22;64985;46.364;17.008;2023-04-15T11:39:34;12.80;99.70
76203;DHT22;64985;46.364;17.008;2023-04-15T11:42:39;12.60;98.80
76203;DHT22;64985;46.364;17.008;2023-04-15T11:45:59;12.40;99.50
76203;DHT22;64985;46.364;17.008;2023-04-15T11:49:03;12.50;99.90
76203;DHT22;64985;46.364;17.008;2023-04-15T11:52:12;12.60;99.10
76203;DHT22;64985;46.364;17.008;2023-04-15T11:55:15;12.70;99.90
76203;DHT22;64985;46.364;17.008;2023-04-15T11:58:25;12.50;98.30
76203;DHT22;64985;46.364;17.008;2023-04-15T12:01:37;12.20;98.50
76203;DHT22;64985;46.364;17.008;2023-04-15T12:04:49;12.20;99.90
76203;DHT22;64985;46.364;17.008;2023-04-15T12:08:01;12.10;97.50
76203;DHT22;64985;46.364;17.008;2023-04-15T12:11:04;12.20;98.70
76203;DHT22;64985;46.364;17.008;2023-04-15T12:17:27;12.10;99.90
76203;DHT22;64985;46.364;17.008;2023-04-15T12:20:30;12.00;99.30
76203;DHT22;64985;46.364;17.008;2023-04-15T12:23:39;11.90;95.00
76203;DHT22;64985;46.364;17.008;2023-04-15T12:26:51;12.00;97.90
76203;DHT22;64985;46.364;17.008;2023-04-15T12:30:03;12.30;97.50
76203;DHT22;64985;46.364;17.008;2023-04-15T12:33:07;12.50;96.40
76203;DHT22;64985;46.364;17.008;2023-04-15T12:36:12;12.40;92.60
76203;DHT22;64985;46.364;17.008;2023-04-15T12:39:15;12.40;98.10
76203;DHT22;64985;46.364;17.008;2023-04-15T12:42:19;12.50;97.70
76203;DHT22;64985;46.364;17.008;2023-04-15T12:45:22;12.40;97.00
76203;DHT22;64985;46.364;17.008;2023-04-15T12:48:25;12.30;96.80
76203;DHT22;64985;46.364;17.008;2023-04-15T12:51:29;12.10;97.70
76203;DHT22;64985;46.364;17.008;2023-04-15T12:54:33;11.70;97.30
76203;DHT22;64985;46.364;17.008;2023-04-15T12:57:38;11.20;99.90
76203;DHT22;64985;46.364;17.008;2023-04-15T13:00:41;10.30;99.90
76203;DHT22;64985;46.364;17.008;2023-04-15T13:03:45;9.70;99.90
76203;DHT22;64985;46.364;17.008;2023-04-15T13:06:48;9.30;99.90
76203;DHT22;64985;46.364;17.008;2023-04-15T13:09:52;9.10;99.90
76203;DHT22;64985;46.364;17.008;2023-04-15T13:12:55;9.10;99.90
76203;DHT22;64985;46.364;17.008;2023-04-15T13:15:58;9.10;99.90
76203;DHT22;64985;46.364;17.008;2023-04-15T13:19:03;9.10;99.90
76203;DHT22;64985;46.364;17.008;2023-04-15T13:22:06;9.10;99.90
76203;DHT22;64985;46.364;17.008;2023-04-15T13:25:10;9.00;99.90
76203;DHT22;64985;46.364;17.008;2023-04-15T13:28:13;9.10;99.90
76203;DHT22;64985;46.364;17.008;2023-04-15T13:31:16;9.20;99.90
76203;DHT22;64985;46.364;17.008;2023-04-15T13:34:19;9.40;99.90
76203;DHT22;64985;46.364;17.008;2023-04-15T13:37:29;9.70;99.90
76203;DHT22;64985;46.364;17.008;2023-04-15T13:40:33;10.00;99.90
76203;DHT22;64985;46.364;17.008;2023-04-15T13:43:35;10.20;99.90
76203;DHT22;64985;46.364;17.008;2023-04-15T13:46:39;10.70;99.90
76203;DHT22;64985;46.364;17.008;2023-04-15T13:49:46;11.90;99.90
76203;DHT22;64985;46.364;17.008;2023-04-15T13:52:49;13.00;99.90
76203;DHT22;64985;46.364;17.008;2023-04-15T13:55:52;12.90;99.90
76203;DHT22;64985;46.364;17.008;2023-04-15T13:58:56;13.00;99.90
76203;DHT22;64985;46.364;17.008;2023-04-15T14:02:03;13.10;99.90
76203;DHT22;64985;46.364;17.008;2023-04-15T14:05:07;13.30;98.00
76203;DHT22;64985;46.364;17.008;2023-04-15T14:08:10;13.40;88.10
76203;DHT22;64985;46.364;17.008;2023-04-15T14:11:13;13.30;93.30
76203;DHT22;64985;46.364;17.008;2023-04-15T14:14:19;13.00;99.90
76203;DHT22;64985;46.364;17.008;2023-04-15T14:17:23;12.60;99.90
76203;DHT22;64985;46.364;17.008;2023-04-15T14:20:26;12.40;99.90
76203;DHT22;64985;46.364;17.008;2023-04-15T14:23:29;12.50;99.90
76203;DHT22;64985;46.364;17.008;2023-04-15T14:26:32;12.50;99.90
76203;DHT22;64985;46.364;17.008;2023-04-15T14:29:37;12.60;99.90
76203;DHT22;64985;46.364;17.008;2023-04-15T14:32:40;12.80;99.90
76203;DHT22;64985;46.364;17.008;2023-04-15T14:35:43;12.80;99.90
76203;DHT22;64985;46.364;17.008;2023-04-15T14:38:46;13.10;99.90
76203;DHT22;64985;46.364;17.008;2023-04-15T14:41:50;12.60;99.90
76203;DHT22;64985;46.364;17.008;2023-04-15T14:44:53;12.40;99.90
76203;DHT22;64985;46.364;17.008;2023-04-15T14:47:57;12.40;99.90
76203;DHT22;64985;46.364;17.008;2023-04-15T14:51:01;12.20;99.90
76203;DHT22;64985;46.364;17.008;2023-04-15T14:54:04;12.20;99.90
76203;DHT22;64985;46.364;17.008;2023-04-15T14:57:07;11.90;99.90
76203;DHT22;64985;46.364;17.008;2023-04-15T15:00:11;11.90;99.90
76203;DHT22;64985;46.364;17.008;2023-04-15T15:03:17;11.80;99.90
76203;DHT22;64985;46.364;17.008;2023-04-15T15:06:21;11.60;99.90
76203;DHT22;64985;46.364;17.008;2023-04-15T15:09:25;11.40;99.90
76203;DHT22;64985;46.364;17.008;2023-04-15T15:12:28;11.30;99.90
76203;DHT22;64985;46.364;17.008;2023-04-15T15:15:33;11.20;99.90
76203;DHT22;64985;46.364;17.008;2023-04-15T15:18:36;11.10;99.90
76203;DHT22;64985;46.364;17.008;2023-04-15T15:21:40;10.90;99.90
76203;DHT22;64985;46.364;17.008;2023-04-15T15:24:43;10.80;99.90
76203;DHT22;64985;46.364;17.008;2023-04-15T15:27:47;10.70;99.90
76203;DHT22;64985;46.364;17.008;2023-04-15T15:30:50;10.70;99.90
76203;DHT22;64985;46.364;17.008;2023-04-15T15:33:54;10.70;99.90
76203;DHT22;64985;46.364;17.008;2023-04-15T15:36:57;10.80;99.90
76203;DHT22;64985;46.364;17.008;2023-04-15T15:40:00;10.80;99.90
76203;DHT22;64985;46.364;17.008;2023-04-15T15:43:05;10.90;99.90
76203;DHT22;64985;46.364;17.008;2023-04-15T15:46:08;10.90;99.90
76203;DHT22;64985;46.364;17.008;2023-04-15T15:49:12;10.80;99.90
76203;DHT22;64985;46.364;17.008;2023-04-15T15:52:15;10.70;99.90
76203;DHT22;64985;46.364;17.008;2023-04-15T15:55:18;10.80;99.90
76203;DHT22;64985;46.364;17.008;2023-04-15T15:58:21;10.70;99.90
76203;DHT22;64985;46.364;17.008;2023-04-15T16:01:25;10.80;99.90
76203;DHT22;64985;46.364;17.008;2023-04-15T16:04:28;10.70;99.90
76203;DHT22;64985;46.364;17.008;2023-04-15T16:07:31;10.70;99.90
76203;DHT22;64985;46.364;17.008;2023-04-15T16:10:34;10.60;99.90
76203;DHT22;64985;46.364;17.008;2023-04-15T16:13:39;10.60;99.90
76203;DHT22;64985;46.364;17.008;2023-04-15T16:16:42;10.50;99.90
76203;DHT22;64985;46.364;17.008;2023-04-15T16:19:46;10.50;99.90
76203;DHT22;64985;46.364;17.008;2023-04-15T16:23:11;10.40;99.90
76203;DHT22;64985;46.364;17.008;2023-04-15T16:26:15;10.50;99.90
76203;DHT22;64985;46.364;17.008;2023-04-15T16:29:18;10.30;99.90
76203;DHT22;64985;46.364;17.008;2023-04-15T16:32:23;10.20;99.90
76203;DHT22;64985;46.364;17.008;2023-04-15T16:35:27;10.10;99.90
76203;DHT22;64985;46.364;17.008;2023-04-15T16:38:30;10.00;99.90
76203;DHT22;64985;46.364;17.008;2023-04-15T16:41:33;10.00;99.90
76203;DHT22;64985;46.364;17.008;2023-04-15T16:44:37;9.90;99.90
76203;DHT22;64985;46.364;17.008;2023-04-15T16:47:40;9.80;99.90
76203;DHT22;64985;46.364;17.008;2023-04-15T16:50:43;9.70;99.90
76203;DHT22;64985;46.364;17.008;2023-04-15T16:53:47;9.70;99.90
76203;DHT22;64985;46.364;17.008;2023-04-15T16:56:50;9.60;99.90
76203;DHT22;64985;46.364;17.008;2023-04-15T16:59:54;9.50;99.90
76203;DHT22;64985;46.364;17.008;2023-04-15T17:02:57;9.40;99.90
76203;DHT22;64985;46.364;17.008;2023-04-15T17:06:03;9.40;99.90
76203;DHT22;64985;46.364;17.008;2023-04-15T17:09:06;9.30;99.90
76203;DHT22;64985;46.364;17.008;2023-04-15T17:12:09;9.20;99.90
76203;DHT22;64985;46.364;17.008;2023-04-15T17:15:13;9.10;99.90
76203;DHT22;64985;46.364;17.008;2023-04-15T17:18:16;9.10;99.90
76203;DHT22;64985;46.364;17.008;2023-04-15T17:21:19;9.00;99.90
76203;DHT22;64985;46.364;17.008;2023-04-15T17:24:24;9.00;99.90
76203;DHT22;64985;46.364;17.008;2023-04-15T17:27:27;8.90;99.90
76203;DHT22;64985;46.364;17.008;2023-04-15T17:30:32;8.80;99.90
76203;DHT22;64985;46.364;17.008;2023-04-15T17:33:35;8.80;99.90
76203;DHT22;64985;46.364;17.008;2023-04-15T17:36:58;8.70;99.90
76203;DHT22;64985;46.364;17.008;2023-04-15T17:40:02;8.60;99.90
76203;DHT22;64985;46.364;17.008;2023-04-15T17:43:10;8.60;99.90
76203;DHT22;64985;46.364;17.008;2023-04-15T17:46:15;8.60;99.90
76203;DHT22;64985;46.364;17.008;2023-04-15T17:49:19;8.50;99.90
76203;DHT22;64985;46.364;17.008;2023-04-15T17:52:22;8.30;99.90
76203;DHT22;64985;46.364;17.008;2023-04-15T17:55:26;8.30;99.90
76203;DHT22;64985;46.364;17.008;2023-04-15T17:58:30;8.20;99.90
76203;DHT22;64985;46.364;17.008;2023-04-15T18:01:35;8.20;99.90
76203;DHT22;64985;46.364;17.008;2023-04-15T18:04:39;8.20;99.90
76203;DHT22;64985;46.364;17.008;2023-04-15T18:07:44;8.20;99.90
76203;DHT22;64985;46.364;17.008;2023-04-15T18:10:48;8.20;99.90
76203;DHT22;64985;46.364;17.008;2023-04-15T18:13:52;8.10;99.90
76203;DHT22;64985;46.364;17.008;2023-04-15T18:16:56;8.10;99.90
76203;DHT22;64985;46.364;17.008;2023-04-15T18:20:00;8.10;99.90
76203;DHT22;64985;46.364;17.008;2023-04-15T18:23:08;8.10;99.90
76203;DHT22;64985;46.364;17.008;2023-04-15T18:26:13;8.10;99.90
76203;DHT22;64985;46.364;17.008;2023-04-15T18:29:17;8.10;99.90
76203;DHT22;64985;46.364;17.008;2023-04-15T18:32:21;8.10;99.90
76203;DHT22;64985;46.364;17.008;2023-04-15T18:35:24;8.10;99.90
76203;DHT22;64985;46.364;17.008;2023-04-15T18:38:28;8.10;99.90
76203;DHT22;64985;46.364;17.008;2023-04-15T18:41:32;8.10;99.90
76203;DHT22;64985;46.364;17.008;2023-04-15T18:44:37;8.10;99.90
76203;DHT22;64985;46.364;17.008;2023-04-15T18:47:40;8.10;99.90
76203;DHT22;64985;46.364;17.008;2023-04-15T18:50:45;8.10;99.90
76203;DHT22;64985;46.364;17.008;2023-04-15T18:53:50;8.10;99.90
76203;DHT22;64985;46.364;17.008;2023-04-15T18:56:54;8.00;99.90
76203;DHT22;64985;46.364;17.008;2023-04-15T18:59:59;8.00;99.90
76203;DHT22;64985;46.364;17.008;2023-04-15T19:03:03;8.00;99.90
76203;DHT22;64985;46.364;17.008;2023-04-15T19:06:07;8.00;99.90
76203;DHT22;64985;46.364;17.008;2023-04-15T19:09:13;8.00;99.90
76203;DHT22;64985;46.364;17.008;2023-04-15T19:12:19;8.00;99.90
76203;DHT22;64985;46.364;17.008;2023-04-15T19:15:23;8.00;99.90
76203;DHT22;64985;46.364;17.008;2023-04-15T19:18:27;8.00;99.90
76203;DHT22;64985;46.364;17.008;2023-04-15T19:21:32;8.00;99.90
76203;DHT22;64985;46.364;17.008;2023-04-15T19:24:36;8.00;99.90